Time;durP1;ratioP1;P1;durP2;ratioP2;P2;SDS_P1;SDS_P2;PMS_P1;PMS_P2;Temp;Humidity;BMP_temperature;BMP_pressure;BME280_temperature;BME280_humidity;BME280_pressure;Samples;Min_cycle;Max_cycle;Signal;HPM_P1;HPM_P2
2021/08/12 00:02:02;;;;;;;7.05;5.35;;;21.50;69.60;;;;;;6247872;23;19996;-93
2021/08/12 00:04:29;;;;;;;6.90;5.00;;;21.50;69.80;;;;;;6247840;22;20010;-93
2021/08/12 00:06:55;;;;;;;5.22;4.43;;;21.50;69.70;;;;;;6252684;22;20006;-93
2021/08/12 00:09:20;;;;;;;5.25;4.63;;;21.40;69.70;;;;;;6247758;23;20329;-92
2021/08/12 00:11:46;;;;;;;6.30;4.72;;;21.40;69.80;;;;;;6250161;22;20019;-93
2021/08/12 00:14:12;;;;;;;5.50;4.85;;;21.40;69.90;;;;;;6247396;23;20511;-93
2021/08/12 00:16:38;;;;;;;5.65;4.55;;;21.40;69.80;;;;;;6248915;22;20035;-92
2021/08/12 00:19:05;;;;;;;6.43;4.40;;;21.40;69.70;;;;;;6247727;23;20030;-93
2021/08/12 00:21:32;;;;;;;7.70;4.97;;;21.30;69.80;;;;;;6247335;23;20049;-93
2021/08/12 00:23:57;;;;;;;6.22;4.95;;;21.30;69.90;;;;;;6247395;23;20000;-93
2021/08/12 00:26:23;;;;;;;7.10;5.13;;;21.30;69.80;;;;;;6247336;23;20007;-93
2021/08/12 00:28:49;;;;;;;5.82;3.90;;;21.30;70.00;;;;;;6251398;22;19996;-93
2021/08/12 00:31:15;;;;;;;5.93;5.00;;;21.30;70.20;;;;;;6279257;22;20011;-93
2021/08/12 00:33:41;;;;;;;5.03;4.10;;;21.30;70.30;;;;;;6248872;22;20004;-93
2021/08/12 00:36:06;;;;;;;6.35;4.88;;;21.30;70.20;;;;;;6247388;23;20358;-93
2021/08/12 00:38:32;;;;;;;5.45;4.47;;;21.30;70.70;;;;;;6247172;23;20007;-92
2021/08/12 00:40:58;;;;;;;5.53;4.63;;;21.20;70.70;;;;;;6246969;23;20419;-92
2021/08/12 00:43:24;;;;;;;5.38;4.20;;;21.20;71.10;;;;;;6247310;23;20031;-93
2021/08/12 00:45:49;;;;;;;6.82;4.32;;;21.20;71.20;;;;;;6250929;22;19996;-91
2021/08/12 00:48:15;;;;;;;4.88;4.07;;;21.10;71.30;;;;;;6247048;23;20000;-93
2021/08/12 00:50:42;;;;;;;5.45;4.47;;;21.10;71.50;;;;;;6275394;22;19999;-93
2021/08/12 00:53:08;;;;;;;7.22;4.47;;;21.10;71.80;;;;;;6246643;23;19996;-93
2021/08/12 00:55:37;;;;;;;6.03;4.55;;;21.10;72.00;;;;;;6247123;22;20007;-93
2021/08/12 00:58:02;;;;;;;6.55;5.38;;;21.10;72.20;;;;;;6246974;23;20032;-92
2021/08/12 01:00:28;;;;;;;5.75;4.88;;;21.00;72.90;;;;;;6246736;23;20015;-93
2021/08/12 01:02:54;;;;;;;5.07;4.20;;;21.00;72.80;;;;;;6251382;22;20004;-93
2021/08/12 01:05:20;;;;;;;5.32;4.32;;;21.00;73.00;;;;;;6278831;22;20015;-94
2021/08/12 01:07:57;;;;;;;5.38;4.50;;;21.00;73.20;;;;;;6249556;22;20422;-93
2021/08/12 01:10:33;;;;;;;5.45;4.65;;;21.00;73.30;;;;;;6247054;23;20086;-93
2021/08/12 01:13:05;;;;;;;5.90;4.30;;;21.00;73.40;;;;;;6266497;22;20073;-94
2021/08/12 01:15:38;;;;;;;5.03;4.05;;;21.00;73.80;;;;;;6246895;23;20012;-93
2021/08/12 01:18:32;;;;;;;5.78;4.22;;;20.90;74.40;;;;;;6246996;23;20091;-92
2021/08/12 01:21:25;;;;;;;7.15;5.13;;;20.90;74.80;;;;;;6220870;23;20065;-92
2021/08/12 01:23:52;;;;;;;5.53;4.18;;;20.90;74.20;;;;;;6254070;22;19996;-91
2021/08/12 01:26:23;;;;;;;5.65;4.38;;;20.80;74.50;;;;;;6250187;23;20008;-92
2021/08/12 01:28:50;;;;;;;4.70;4.20;;;20.80;74.50;;;;;;6280657;22;19995;-92
2021/08/12 01:31:30;;;;;;;4.88;3.65;;;20.80;75.00;;;;;;6278785;22;20023;-93
2021/08/12 01:34:08;;;;;;;5.45;4.32;;;20.70;74.70;;;;;;6251650;22;19996;-93
2021/08/12 01:36:36;;;;;;;6.03;4.80;;;20.70;75.10;;;;;;6247236;22;20000;-93
2021/08/12 01:39:06;;;;;;;6.13;4.35;;;20.60;75.80;;;;;;6246983;23;19996;-93
2021/08/12 01:41:32;;;;;;;7.40;4.68;;;20.60;76.10;;;;;;6246866;23;20072;-93
2021/08/12 01:44:00;;;;;;;4.82;4.32;;;20.60;76.40;;;;;;6247065;23;20058;-93
2021/08/12 01:46:27;;;;;;;5.50;4.25;;;20.50;76.50;;;;;;6246814;23;19996;-93
2021/08/12 01:48:55;;;;;;;6.97;4.00;;;20.50;76.70;;;;;;6250727;22;20023;-93
2021/08/12 01:51:24;;;;;;;5.10;3.78;;;20.50;76.90;;;;;;6246643;23;20408;-93
2021/08/12 01:53:52;;;;;;;5.68;3.60;;;20.50;76.80;;;;;;6277105;22;19992;-93
2021/08/12 01:56:19;;;;;;;4.18;3.78;;;20.50;76.80;;;;;;6246458;23;20000;-94
2021/08/12 01:58:47;;;;;;;4.18;3.65;;;20.40;77.00;;;;;;6248871;22;20482;-93
2021/08/12 02:01:13;;;;;;;4.82;3.70;;;20.40;77.20;;;;;;6246509;23;20000;-93
2021/08/12 02:03:41;;;;;;;5.22;4.40;;;20.40;77.50;;;;;;6247275;22;20354;-93
2021/08/12 02:06:09;;;;;;;5.28;3.70;;;20.40;77.70;;;;;;6246287;22;19996;-93
2021/08/12 02:08:35;;;;;;;5.05;4.20;;;20.40;77.90;;;;;;6246539;22;20000;-93
2021/08/12 02:11:00;;;;;;;6.05;4.75;;;20.40;78.00;;;;;;6246347;23;20004;-93
2021/08/12 02:13:28;;;;;;;4.97;4.00;;;20.40;78.10;;;;;;6247329;22;20007;-94
2021/08/12 02:15:54;;;;;;;6.38;4.28;;;20.40;78.20;;;;;;6251936;22;20000;-93
2021/08/12 02:18:20;;;;;;;5.25;4.20;;;20.30;78.40;;;;;;6251329;22;20049;-93
2021/08/12 02:21:03;;;;;;;5.20;4.22;;;20.30;79.00;;;;;;6277729;22;19999;-93
2021/08/12 02:23:36;;;;;;;4.93;4.43;;;20.30;78.60;;;;;;6251355;22;20000;-93
2021/08/12 02:26:19;;;;;;;5.32;4.00;;;20.20;78.90;;;;;;6251357;22;20225;-93
2021/08/12 02:28:46;;;;;;;5.82;4.15;;;20.20;78.40;;;;;;6251590;22;19996;-93
2021/08/12 02:31:15;;;;;;;8.25;4.65;;;20.20;78.60;;;;;;6251126;22;20000;-93
2021/08/12 02:33:46;;;;;;;4.85;4.13;;;20.10;78.70;;;;;;6251178;22;20003;-93
2021/08/12 02:36:13;;;;;;;5.40;4.20;;;20.10;79.00;;;;;;6251619;22;19996;-93
2021/08/12 02:38:42;;;;;;;5.32;4.63;;;20.10;79.10;;;;;;6251258;22;20000;-93
2021/08/12 02:41:12;;;;;;;8.45;4.45;;;20.00;79.30;;;;;;6252194;22;20486;-93
2021/08/12 02:43:41;;;;;;;6.63;4.78;;;19.90;79.60;;;;;;6251355;22;20004;-94
2021/08/12 02:46:08;;;;;;;5.97;4.35;;;19.90;79.80;;;;;;6251095;22;20011;-94
2021/08/12 02:48:35;;;;;;;6.28;4.85;;;19.80;80.20;;;;;;6251673;22;20004;-94
2021/08/12 02:51:03;;;;;;;5.63;4.80;;;19.80;80.40;;;;;;6251572;22;20008;-93
2021/08/12 02:53:32;;;;;;;5.65;4.68;;;19.80;80.60;;;;;;6251606;22;19999;-94
2021/08/12 02:56:00;;;;;;;5.05;4.43;;;19.80;80.90;;;;;;6251618;22;19999;-94
2021/08/12 02:58:31;;;;;;;5.45;4.60;;;19.70;80.70;;;;;;6251183;22;20048;-94
2021/08/12 03:00:57;;;;;;;6.30;4.20;;;19.80;80.70;;;;;;6278433;22;19996;-94
2021/08/12 03:03:24;;;;;;;5.18;4.30;;;19.80;80.70;;;;;;6251488;22;20007;-93
2021/08/12 03:05:50;;;;;;;5.80;4.35;;;19.80;80.70;;;;;;6251328;22;20415;-94
2021/08/12 03:08:19;;;;;;;5.40;4.25;;;19.80;80.70;;;;;;6251675;22;20006;-92
2021/08/12 03:10:44;;;;;;;5.93;4.78;;;19.80;81.00;;;;;;6254185;22;20058;-93
2021/08/12 03:13:12;;;;;;;5.78;4.68;;;19.80;81.10;;;;;;6254094;22;20407;-93
2021/08/12 03:15:39;;;;;;;6.30;5.13;;;19.90;81.20;;;;;;6253979;22;20058;-93
2021/08/12 03:18:06;;;;;;;5.80;4.60;;;19.90;81.30;;;;;;6257530;22;19996;-92
2021/08/12 03:20:31;;;;;;;6.03;4.32;;;19.90;81.60;;;;;;6258013;22;20014;-93
2021/08/12 03:22:58;;;;;;;6.65;4.70;;;20.00;81.50;;;;;;6252622;22;20240;-94
2021/08/12 03:25:25;;;;;;;4.90;3.92;;;20.00;81.20;;;;;;6252649;22;19996;-94
2021/08/12 03:27:51;;;;;;;4.68;4.05;;;20.00;81.10;;;;;;6252993;22;20096;-95
2021/08/12 03:30:18;;;;;;;5.45;4.60;;;20.00;81.20;;;;;;6253310;22;20004;-94
2021/08/12 03:32:43;;;;;;;5.22;4.40;;;20.10;81.40;;;;;;6253138;22;20002;-93
2021/08/12 03:35:09;;;;;;;5.03;4.53;;;20.10;81.70;;;;;;6253179;22;20067;-94
2021/08/12 03:37:36;;;;;;;4.47;3.88;;;20.10;81.20;;;;;;6253446;22;20070;-93
2021/08/12 03:40:01;;;;;;;7.05;5.00;;;20.10;81.20;;;;;;6252635;22;20036;-94
2021/08/12 03:42:27;;;;;;;5.53;4.93;;;20.10;81.20;;;;;;6252585;22;19992;-93
2021/08/12 03:44:53;;;;;;;6.15;4.65;;;20.00;81.30;;;;;;6253108;22;20003;-94
2021/08/12 03:47:19;;;;;;;6.10;4.45;;;20.00;81.20;;;;;;6253232;22;20484;-93
2021/08/12 03:49:45;;;;;;;6.47;5.00;;;20.00;81.20;;;;;;6279696;22;19995;-94
2021/08/12 03:52:11;;;;;;;5.15;4.22;;;20.00;81.90;;;;;;6253023;22;20288;-94
2021/08/12 03:54:37;;;;;;;6.00;4.80;;;20.00;81.20;;;;;;6252811;22;20003;-94
2021/08/12 03:57:04;;;;;;;5.75;4.70;;;20.00;81.30;;;;;;6252659;22;19992;-94
2021/08/12 03:59:29;;;;;;;4.70;4.20;;;20.00;81.30;;;;;;6252346;22;20004;-94
2021/08/12 04:01:55;;;;;;;8.23;5.15;;;20.00;81.30;;;;;;6252698;22;19996;-94
2021/08/12 04:04:21;;;;;;;6.15;5.35;;;20.00;81.40;;;;;;6252414;22;20411;-94
2021/08/12 04:06:47;;;;;;;6.20;5.03;;;20.00;81.70;;;;;;6252696;22;19995;-94
2021/08/12 04:09:12;;;;;;;5.03;4.53;;;20.00;81.40;;;;;;6252548;22;20432;-94
2021/08/12 04:11:38;;;;;;;6.60;4.68;;;20.00;81.50;;;;;;6252469;22;20003;-93
2021/08/12 04:14:04;;;;;;;6.25;5.00;;;20.00;81.40;;;;;;6279863;22;20441;-94
2021/08/12 04:16:29;;;;;;;5.63;4.63;;;20.00;81.20;;;;;;6279581;22;19991;-93
2021/08/12 04:18:55;;;;;;;5.78;4.95;;;20.10;81.10;;;;;;6252522;22;19995;-95
2021/08/12 04:21:21;;;;;;;6.05;4.72;;;20.10;81.00;;;;;;6252278;22;20027;-94
2021/08/12 04:23:46;;;;;;;5.75;4.50;;;20.10;80.90;;;;;;6252330;22;19991;-94
2021/08/12 04:26:12;;;;;;;5.43;4.50;;;20.10;80.80;;;;;;6251996;22;20488;-94
2021/08/12 04:28:38;;;;;;;6.00;5.10;;;20.20;81.50;;;;;;6252424;22;20000;-94
2021/08/12 04:31:04;;;;;;;7.00;5.03;;;20.20;80.90;;;;;;6252314;22;20003;-94
2021/08/12 04:33:29;;;;;;;10.13;4.68;;;20.20;81.00;;;;;;6252413;22;20000;-94
2021/08/12 04:35:56;;;;;;;5.68;5.07;;;20.30;80.90;;;;;;6254487;22;20000;-94
2021/08/12 04:38:22;;;;;;;6.22;5.60;;;20.30;80.90;;;;;;6252402;22;19991;-93
2021/08/12 04:40:48;;;;;;;8.32;5.15;;;20.40;80.80;;;;;;6252495;22;20018;-93
2021/08/12 04:43:14;;;;;;;6.28;4.72;;;20.40;80.70;;;;;;6253254;22;20074;-93
2021/08/12 04:45:39;;;;;;;9.20;5.15;;;20.40;80.70;;;;;;6252214;22;20407;-93
2021/08/12 04:48:05;;;;;;;5.82;5.00;;;20.50;80.70;;;;;;6251874;22;20079;-93
2021/08/12 04:50:34;;;;;;;7.45;5.53;;;20.50;80.60;;;;;;6252337;22;19996;-93
2021/08/12 04:53:00;;;;;;;7.00;5.15;;;20.50;80.50;;;;;;6252138;22;20020;-93
2021/08/12 04:55:26;;;;;;;7.25;5.43;;;20.60;80.60;;;;;;6253156;22;20003;-93
2021/08/12 04:57:52;;;;;;;5.55;4.95;;;20.50;80.60;;;;;;6251909;22;20079;-93
2021/08/12 05:00:18;;;;;;;4.85;4.35;;;20.50;80.60;;;;;;6252334;22;20003;-93
2021/08/12 05:02:46;;;;;;;5.93;4.85;;;20.60;80.60;;;;;;6279747;22;20404;-93
2021/08/12 05:05:12;;;;;;;5.75;5.15;;;20.60;80.50;;;;;;6284778;22;19996;-92
2021/08/12 05:07:38;;;;;;;5.70;4.82;;;20.70;80.50;;;;;;6258524;22;20064;-92
2021/08/12 05:10:05;;;;;;;8.32;4.85;;;20.80;80.40;;;;;;6258793;22;20423;-92
2021/08/12 05:12:31;;;;;;;6.72;4.78;;;20.80;80.20;;;;;;6260213;22;20049;-92
2021/08/12 05:15:00;;;;;;;7.43;5.85;;;20.90;80.20;;;;;;6257363;22;20007;-92
2021/08/12 05:17:27;;;;;;;6.47;5.85;;;20.90;80.10;;;;;;6251401;22;20006;-94
2021/08/12 05:19:52;;;;;;;5.57;4.90;;;21.00;80.20;;;;;;6252736;22;20014;-93
2021/08/12 05:22:22;;;;;;;9.77;5.10;;;21.00;80.10;;;;;;6253446;22;19999;-94
2021/08/12 05:24:48;;;;;;;6.13;4.90;;;21.10;80.00;;;;;;6251921;22;19999;-93
2021/08/12 05:27:14;;;;;;;5.93;4.88;;;21.20;79.90;;;;;;6251857;22;20049;-93
2021/08/12 05:29:39;;;;;;;6.40;5.15;;;21.20;79.70;;;;;;6251758;22;20007;-93
2021/08/12 05:32:05;;;;;;;6.75;5.35;;;21.40;79.50;;;;;;6253448;22;20079;-93
2021/08/12 05:34:31;;;;;;;6.55;5.38;;;21.40;79.30;;;;;;6252801;22;20023;-92
2021/08/12 05:36:59;;;;;;;6.65;5.57;;;21.40;79.10;;;;;;6250238;22;20058;-93
2021/08/12 05:39:25;;;;;;;8.00;5.57;;;21.40;78.90;;;;;;6251339;22;20012;-93
2021/08/12 05:41:52;;;;;;;6.90;5.40;;;21.50;78.90;;;;;;6251333;22;20415;-93
2021/08/12 05:44:21;;;;;;;6.63;5.15;;;21.60;78.90;;;;;;6251380;22;20049;-93
2021/08/12 05:46:46;;;;;;;6.32;5.07;;;21.70;78.70;;;;;;6251827;22;20010;-93
2021/08/12 05:49:12;;;;;;;5.72;5.13;;;21.80;78.40;;;;;;6251467;22;20063;-93
2021/08/12 05:51:38;;;;;;;7.13;5.28;;;21.80;78.30;;;;;;6251261;22;20009;-94
2021/08/12 05:54:06;;;;;;;7.82;5.93;;;21.90;78.10;;;;;;6252213;22;20415;-94
2021/08/12 05:56:32;;;;;;;6.90;4.78;;;22.00;78.00;;;;;;6251999;22;20403;-94
2021/08/12 05:58:58;;;;;;;6.15;5.20;;;22.10;77.90;;;;;;6252057;22;20003;-94
2021/08/12 06:01:24;;;;;;;6.90;5.53;;;22.10;77.60;;;;;;6253065;22;19996;-94
2021/08/12 06:03:49;;;;;;;6.60;5.90;;;22.20;77.30;;;;;;6250979;22;20117;-93
2021/08/12 06:06:16;;;;;;;5.35;4.72;;;22.20;77.20;;;;;;6251125;22;20003;-93
2021/08/12 06:08:41;;;;;;;7.70;5.45;;;22.30;77.10;;;;;;6250872;22;20000;-93
2021/08/12 06:11:07;;;;;;;7.18;5.55;;;22.30;76.90;;;;;;6251849;22;20311;-93
2021/08/12 06:13:33;;;;;;;6.47;5.78;;;22.30;76.70;;;;;;6251457;22;20421;-93
2021/08/12 06:16:01;;;;;;;8.05;5.93;;;22.40;76.70;;;;;;6256979;22;20000;-93
2021/08/12 06:18:27;;;;;;;9.57;5.20;;;22.40;76.60;;;;;;6258641;22;20000;-94
2021/08/12 06:20:53;;;;;;;6.07;5.45;;;22.50;76.40;;;;;;6257328;22;20011;-94
2021/08/12 06:23:18;;;;;;;6.07;4.90;;;22.60;76.20;;;;;;6260658;22;20000;-92
2021/08/12 06:25:44;;;;;;;7.38;6.15;;;22.70;75.90;;;;;;6264708;22;20395;-93
2021/08/12 06:28:10;;;;;;;6.40;5.63;;;22.80;75.80;;;;;;6261900;22;20002;-93
2021/08/12 06:30:37;;;;;;;5.95;5.35;;;22.80;75.70;;;;;;6265565;22;19999;-93
2021/08/12 06:33:04;;;;;;;6.32;5.00;;;22.90;75.60;;;;;;6274182;22;20006;-93
2021/08/12 06:35:34;;;;;;;5.68;5.18;;;23.00;75.40;;;;;;6273243;22;19999;-91
2021/08/12 06:38:00;;;;;;;6.80;5.90;;;23.00;74.90;;;;;;6270966;22;20006;-93
2021/08/12 06:40:26;;;;;;;6.43;4.53;;;23.10;74.80;;;;;;6273092;22;20007;-92
2021/08/12 06:42:52;;;;;;;5.60;5.00;;;23.10;74.60;;;;;;6270949;22;20051;-92
2021/08/12 06:45:19;;;;;;;5.40;4.88;;;23.20;74.10;;;;;;6266725;22;20077;-94
2021/08/12 06:47:46;;;;;;;6.70;5.47;;;23.20;73.80;;;;;;6254986;22;20325;-94
2021/08/12 06:50:14;;;;;;;6.53;5.10;;;23.20;73.60;;;;;;6254546;22;20004;-94
2021/08/12 06:52:40;;;;;;;8.27;5.50;;;23.20;73.80;;;;;;6254415;22;20002;-93
2021/08/12 06:55:06;;;;;;;8.55;5.78;;;23.30;73.80;;;;;;6255252;22;20075;-94
2021/08/12 06:57:35;;;;;;;6.78;5.05;;;23.40;73.60;;;;;;6255355;22;20412;-94
2021/08/12 07:00:00;;;;;;;6.05;5.45;;;23.50;73.20;;;;;;6254798;22;20106;-94
2021/08/12 07:02:29;;;;;;;5.97;5.38;;;23.50;72.60;;;;;;6285298;22;20403;-93
2021/08/12 07:04:58;;;;;;;5.97;5.07;;;23.60;72.40;;;;;;6262469;22;20004;-94
2021/08/12 07:07:24;;;;;;;5.00;4.50;;;23.60;72.10;;;;;;6258939;22;19999;-93
2021/08/12 07:09:53;;;;;;;5.80;5.20;;;23.70;72.00;;;;;;6257650;22;20007;-91
2021/08/12 07:12:22;;;;;;;6.05;5.30;;;23.70;71.50;;;;;;6258101;22;20018;-92
2021/08/12 07:14:48;;;;;;;6.43;5.78;;;23.70;71.50;;;;;;6254793;22;20311;-93
2021/08/12 07:17:14;;;;;;;5.63;5.13;;;23.70;71.50;;;;;;6254175;22;20003;-92
2021/08/12 07:19:40;;;;;;;5.05;4.55;;;23.80;71.60;;;;;;6254107;22;20010;-93
2021/08/12 07:22:13;;;;;;;7.15;5.40;;;23.80;71.50;;;;;;6256304;22;19996;-94
2021/08/12 07:24:39;;;;;;;;;;;23.80;71.20;;;;;;6256870;22;19996;-95
2021/08/12 07:27:05;;;;;;;6.65;5.20;;;23.80;71.20;;;;;;6255567;22;19895;-93
2021/08/12 07:29:30;;;;;;;6.43;5.78;;;23.80;71.00;;;;;;6254477;22;20505;-94
2021/08/12 07:31:56;;;;;;;6.50;5.32;;;23.80;71.30;;;;;;6253302;22;20047;-94
2021/08/12 07:34:22;;;;;;;5.55;5.00;;;23.90;71.30;;;;;;6253030;22;20010;-94
2021/08/12 07:36:48;;;;;;;6.70;5.45;;;24.00;71.20;;;;;;6253386;22;20042;-94
2021/08/12 07:39:18;;;;;;;5.88;4.47;;;24.10;70.60;;;;;;6252835;22;20307;-95
2021/08/12 07:41:44;;;;;;;5.45;4.93;;;24.20;70.30;;;;;;6253508;22;20448;-94
2021/08/12 07:44:10;;;;;;;5.75;5.13;;;24.30;70.30;;;;;;6252730;22;20260;-94
2021/08/12 07:46:44;;;;;;;6.32;5.07;;;24.40;69.60;;;;;;6252890;22;20007;-94
2021/08/12 07:49:10;;;;;;;5.97;5.35;;;24.40;68.70;;;;;;6252013;22;20061;-94
2021/08/12 07:51:36;;;;;;;5.90;5.07;;;24.30;68.70;;;;;;6251536;22;20000;-94
2021/08/12 07:54:02;;;;;;;5.88;4.80;;;24.30;68.60;;;;;;6252618;22;19992;-93
2021/08/12 07:56:27;;;;;;;7.35;5.07;;;24.30;67.90;;;;;;6252660;22;20496;-93
2021/08/12 07:58:53;;;;;;;6.43;4.65;;;24.30;68.40;;;;;;6252606;22;20000;-94
2021/08/12 08:01:19;;;;;;;5.30;4.60;;;24.30;67.90;;;;;;6250788;22;20411;-93
2021/08/12 08:03:46;;;;;;;7.10;4.60;;;24.40;67.70;;;;;;6251658;22;20038;-94
2021/08/12 08:06:12;;;;;;;6.05;4.88;;;24.50;67.20;;;;;;6252328;22;20023;-93
2021/08/12 08:08:38;;;;;;;6.53;4.38;;;24.60;66.50;;;;;;6252315;22;20090;-94
2021/08/12 08:11:04;;;;;;;5.10;4.60;;;24.60;66.30;;;;;;6252283;22;19992;-93
2021/08/12 08:13:31;;;;;;;8.70;4.68;;;24.70;65.90;;;;;;6252539;22;20071;-94
2021/08/12 08:15:58;;;;;;;5.95;5.05;;;24.80;64.90;;;;;;6252882;22;20415;-94
2021/08/12 08:18:24;;;;;;;5.95;5.15;;;24.80;64.00;;;;;;6280560;22;19992;-94
2021/08/12 08:20:50;;;;;;;5.18;4.40;;;24.80;63.70;;;;;;6251791;22;20012;-94
2021/08/12 08:23:16;;;;;;;6.18;4.85;;;24.80;63.90;;;;;;6252819;22;20006;-94
2021/08/12 08:25:42;;;;;;;5.55;4.95;;;24.90;63.80;;;;;;6251882;22;20027;-94
2021/08/12 08:28:08;;;;;;;9.52;4.57;;;24.90;63.00;;;;;;6252389;22;20414;-95
2021/08/12 08:30:35;;;;;;;6.70;5.05;;;24.90;62.60;;;;;;6252267;22;20007;-93
2021/08/12 08:33:02;;;;;;;5.47;4.72;;;24.90;61.60;;;;;;6252528;22;20004;-94
2021/08/12 08:35:44;;;;;;;6.53;5.32;;;24.90;60.10;;;;;;6254682;22;19995;-94
2021/08/12 08:38:09;;;;;;;5.22;4.70;;;24.90;59.20;;;;;;6224779;22;20054;-93
2021/08/12 08:40:36;;;;;;;6.18;5.13;;;24.80;59.80;;;;;;6251713;22;20039;-94
2021/08/12 08:43:03;;;;;;;6.68;5.10;;;24.80;60.30;;;;;;6252328;22;20307;-94
2021/08/12 08:45:30;;;;;;;7.35;5.28;;;24.80;60.40;;;;;;6254091;22;19999;-93
2021/08/12 08:47:57;;;;;;;5.25;4.70;;;24.80;60.10;;;;;;6253342;22;20006;-95
2021/08/12 08:50:26;;;;;;;5.68;5.03;;;24.80;59.90;;;;;;6278971;22;20000;-96
2021/08/12 08:52:53;;;;;;;6.25;5.00;;;24.80;59.80;;;;;;6251573;22;20055;-96
2021/08/12 08:55:21;;;;;;;6.47;5.30;;;24.90;59.40;;;;;;6253735;22;19999;-95
2021/08/12 08:57:51;;;;;;;5.30;4.80;;;24.90;59.20;;;;;;6265383;22;19996;-95
2021/08/12 09:00:18;;;;;;;10.32;4.72;;;24.90;58.50;;;;;;6265350;22;20000;-94
2021/08/12 09:02:47;;;;;;;5.43;4.93;;;24.90;57.50;;;;;;6259316;22;20000;-92
2021/08/12 09:05:14;;;;;;;5.35;4.80;;;24.90;57.30;;;;;;6257999;22;20000;-95
2021/08/12 09:07:40;;;;;;;9.18;4.22;;;24.90;57.90;;;;;;6266376;22;20000;-94
2021/08/12 09:10:06;;;;;;;5.05;4.38;;;25.00;57.60;;;;;;6273460;22;20015;-95
2021/08/12 09:12:32;;;;;;;7.43;5.03;;;25.10;56.60;;;;;;6276174;22;20000;-95
2021/08/12 09:15:06;;;;;;;6.30;4.55;;;25.00;56.60;;;;;;6275716;22;20007;-93
2021/08/12 09:17:31;;;;;;;4.93;4.03;;;24.90;57.10;;;;;;6275472;22;19992;-92
2021/08/12 09:20:16;;;;;;;5.00;4.50;;;24.90;57.30;;;;;;6275055;22;20003;-94
2021/08/12 09:23:00;;;;;;;6.00;3.83;;;25.00;56.80;;;;;;6274395;22;19992;-93
2021/08/12 09:25:37;;;;;;;6.78;4.80;;;25.00;55.70;;;;;;6257987;22;20095;-94
2021/08/12 09:28:21;;;;;;;5.05;3.80;;;25.10;54.70;;;;;;6250078;22;20055;-94
2021/08/12 09:31:13;;;;;;;5.18;4.20;;;25.10;55.30;;;;;;6254964;22;20015;-96
2021/08/12 09:40:03;;;;;;;5.22;4.55;;;25.40;53.30;;;;;;6280641;22;20022;-95
2021/08/12 09:42:52;;;;;;;5.32;3.90;;;25.50;54.00;;;;;;6256342;22;20062;-95
2021/08/12 09:45:25;;;;;;;5.97;4.22;;;25.50;53.70;;;;;;6262349;22;19999;-96
2021/08/12 09:51:14;;;;;;;4.83;3.53;;;25.50;53.20;;;;;;6278719;22;20057;-94
2021/08/12 09:53:47;;;;;;;5.88;2.92;;;25.40;53.10;;;;;;6252338;22;20315;-93
2021/08/12 10:03:26;;;;;;;8.35;3.75;;;25.40;50.70;;;;;;6277646;22;20070;-93
2021/08/12 10:19:43;;;;;;;3.35;3.05;;;25.40;50.30;;;;;;6184219;23;20027;-93
2021/08/12 10:22:09;;;;;;;4.80;2.85;;;25.30;49.90;;;;;;6159630;23;20009;-93
2021/08/12 10:24:35;;;;;;;2.97;2.63;;;25.40;49.80;;;;;;6159997;23;20004;-94
2021/08/12 10:27:03;;;;;;;3.92;2.65;;;25.40;50.20;;;;;;6186562;23;20014;-93
2021/08/12 10:30:01;;;;;;;3.88;3.35;;;25.50;50.60;;;;;;6185807;23;20088;-93
2021/08/12 10:35:38;;;;;;;4.55;3.50;;;25.60;51.20;;;;;;6040409;23;20503;-92
2021/08/12 10:38:04;;;;;;;3.72;2.40;;;25.50;49.20;;;;;;6159269;23;20092;-91
2021/08/12 10:40:34;;;;;;;3.13;2.80;;;25.50;49.40;;;;;;6185362;23;20009;-91
2021/08/12 10:43:40;;;;;;;3.53;2.85;;;25.50;49.20;;;;;;6185898;23;20000;-93
2021/08/12 10:50:24;;;;;;;3.53;2.83;;;25.40;48.60;;;;;;6193286;23;20052;-94
2021/08/12 10:56:19;;;;;;;4.43;2.78;;;25.50;49.70;;;;;;6255290;22;20026;-94
2021/08/12 10:58:50;;;;;;;4.25;2.75;;;25.60;50.20;;;;;;6254008;23;19992;-93
2021/08/12 11:01:36;;;;;;;3.40;3.10;;;25.80;50.00;;;;;;6239323;23;20000;-91
2021/08/12 11:04:03;;;;;;;4.10;2.63;;;25.90;49.50;;;;;;6214715;23;20000;-92
2021/08/12 11:06:44;;;;;;;5.55;3.78;;;25.90;50.00;;;;;;6215615;23;20012;-93
2021/08/12 11:10:00;;;;;;;4.15;3.22;;;26.00;50.00;;;;;;6261371;23;20004;-92
2021/08/12 11:12:57;;;;;;;4.38;3.45;;;25.90;50.00;;;;;;6235632;23;19996;-96
2021/08/12 11:15:41;;;;;;;6.18;2.80;;;25.90;49.90;;;;;;6234873;23;20007;-92
2021/08/12 11:18:15;;;;;;;4.53;3.05;;;25.80;49.80;;;;;;6239488;22;20015;-94
2021/08/12 11:20:49;;;;;;;3.67;3.25;;;25.80;50.10;;;;;;6253666;22;20004;-95
2021/08/12 11:23:20;;;;;;;4.78;2.97;;;25.80;49.80;;;;;;6253285;22;20000;-93
2021/08/12 11:26:24;;;;;;;5.40;3.13;;;25.90;49.00;;;;;;6254189;22;20008;-94
2021/08/12 11:28:52;;;;;;;3.50;2.63;;;25.90;48.20;;;;;;6265203;22;20010;-94
2021/08/12 11:31:28;;;;;;;3.92;2.70;;;25.90;49.00;;;;;;6262261;22;20035;-94
2021/08/12 11:33:59;;;;;;;3.15;2.85;;;26.00;48.40;;;;;;6260564;22;20419;-92
2021/08/12 11:36:26;;;;;;;3.05;2.65;;;26.00;48.00;;;;;;6232047;22;20003;-90
2021/08/12 11:39:04;;;;;;;2.78;2.58;;;26.10;46.60;;;;;;6255691;22;20411;-89
2021/08/12 11:41:43;;;;;;;2.92;2.67;;;26.00;46.50;;;;;;6262112;22;20098;-90
2021/08/12 11:44:15;;;;;;;2.80;2.60;;;25.90;47.30;;;;;;6261434;22;20027;-89
2021/08/12 11:46:43;;;;;;;3.78;2.85;;;26.00;47.90;;;;;;6235455;22;19996;-91
2021/08/12 11:49:14;;;;;;;4.38;2.97;;;26.00;48.20;;;;;;6258380;22;20068;-89
2021/08/12 11:51:40;;;;;;;2.80;2.60;;;26.00;48.90;;;;;;6254536;22;20047;-89
2021/08/12 11:54:09;;;;;;;5.25;2.85;;;26.00;49.10;;;;;;6251694;22;20081;-91
2021/08/12 11:56:37;;;;;;;3.38;2.55;;;26.10;49.40;;;;;;6251242;22;20012;-90
2021/08/12 11:59:03;;;;;;;4.05;3.15;;;26.10;49.50;;;;;;6250779;22;19992;-90
2021/08/12 12:01:32;;;;;;;3.25;2.92;;;26.20;49.80;;;;;;6250955;22;20039;-90
2021/08/12 12:03:58;;;;;;;3.28;2.90;;;26.20;49.10;;;;;;6278357;22;20022;-91
2021/08/12 12:06:42;;;;;;;3.85;3.15;;;26.10;48.80;;;;;;6249498;22;19996;-90
2021/08/12 12:09:37;;;;;;;3.15;2.78;;;26.10;49.40;;;;;;6251173;22;20403;-89
2021/08/12 12:12:09;;;;;;;4.38;2.90;;;26.10;49.30;;;;;;6251969;22;20007;-91
2021/08/12 12:14:36;;;;;;;6.88;3.25;;;26.10;49.40;;;;;;6250935;22;20716;-91
2021/08/12 12:17:24;;;;;;;2.88;2.58;;;26.10;49.30;;;;;;6277973;22;20426;-92
2021/08/12 12:20:10;;;;;;;4.55;3.33;;;26.20;48.80;;;;;;6278483;22;20004;-90
2021/08/12 12:22:39;;;;;;;3.47;3.17;;;26.40;49.40;;;;;;6250847;22;20028;-90
2021/08/12 12:25:10;;;;;;;4.55;3.05;;;26.40;49.20;;;;;;6252969;22;19991;-91
2021/08/12 12:27:36;;;;;;;4.05;3.17;;;26.50;49.10;;;;;;6250951;22;20065;-91
2021/08/12 12:30:08;;;;;;;5.05;3.08;;;26.70;48.70;;;;;;6251023;22;20339;-91
2021/08/12 12:32:39;;;;;;;8.98;2.67;;;26.70;48.80;;;;;;6253146;22;20083;-91
2021/08/12 12:35:06;;;;;;;3.40;2.80;;;26.80;48.80;;;;;;6251056;22;20005;-90
2021/08/12 12:37:34;;;;;;;6.45;2.90;;;26.90;49.00;;;;;;6251570;22;20375;-91
2021/08/12 12:40:00;;;;;;;3.30;3.00;;;27.10;48.80;;;;;;6249693;22;20023;-89
2021/08/12 12:42:34;;;;;;;3.33;2.72;;;27.30;48.20;;;;;;6250472;22;20364;-89
2021/08/12 12:45:06;;;;;;;4.78;3.05;;;27.40;48.60;;;;;;6250616;22;20000;-90
2021/08/12 12:47:33;;;;;;;3.50;2.83;;;27.70;48.20;;;;;;6249381;22;19996;-90
2021/08/12 12:50:10;;;;;;;3.25;2.65;;;27.90;48.00;;;;;;6250179;22;20537;-90
2021/08/12 12:52:36;;;;;;;4.15;3.10;;;28.20;47.20;;;;;;6250518;22;20315;-90
2021/08/12 12:55:18;;;;;;;3.25;2.67;;;28.20;46.60;;;;;;6250238;22;20073;-89
2021/08/12 12:57:46;;;;;;;3.33;2.78;;;28.40;44.70;;;;;;6250306;22;20025;-89
2021/08/12 13:00:12;;;;;;;2.97;2.67;;;28.60;46.00;;;;;;6226370;22;20016;-89
2021/08/12 13:02:38;;;;;;;3.05;2.75;;;28.80;46.50;;;;;;6255195;22;20303;-88
2021/08/12 13:05:05;;;;;;;3.05;2.75;;;29.20;45.70;;;;;;6229103;22;19999;-89
2021/08/12 13:07:31;;;;;;;3.97;3.22;;;29.30;45.00;;;;;;6252052;22;20004;-88
2021/08/12 13:10:14;;;;;;;2.63;2.42;;;29.50;44.50;;;;;;6257618;22;20422;-90
2021/08/12 13:12:41;;;;;;;3.60;2.80;;;29.40;44.70;;;;;;6278861;22;20000;-88
2021/08/12 13:15:10;;;;;;;2.92;2.42;;;29.50;43.80;;;;;;6250826;22;20010;-90
2021/08/12 13:17:40;;;;;;;2.70;2.42;;;29.50;43.80;;;;;;6245243;22;20016;-90
2021/08/12 13:20:15;;;;;;;2.85;2.33;;;29.70;43.70;;;;;;6251004;22;20012;-90
2021/08/12 13:22:45;;;;;;;2.60;2.40;;;29.70;43.30;;;;;;6249885;22;20078;-91
2021/08/12 13:25:21;;;;;;;3.08;2.78;;;29.80;43.60;;;;;;6250233;22;20415;-90
2021/08/12 13:27:53;;;;;;;5.20;2.65;;;30.00;43.50;;;;;;6251230;22;20004;-90
2021/08/12 13:30:37;;;;;;;2.65;2.45;;;30.50;43.80;;;;;;6249577;22;20017;-90
2021/08/12 13:33:26;;;;;;;3.78;3.03;;;30.50;41.90;;;;;;6251063;22;20000;-90
2021/08/12 13:35:54;;;;;;;4.32;2.70;;;30.20;40.90;;;;;;6251868;22;20010;-91
2021/08/12 13:38:24;;;;;;;2.67;2.45;;;30.00;42.20;;;;;;6252422;22;20006;-91
2021/08/12 13:40:51;;;;;;;2.60;2.40;;;29.80;42.10;;;;;;6251577;22;20003;-91